createdAt,value
2022-09-25T00:01:17.132Z,101129.09
2022-09-25T00:03:44.063Z,101132.56
2022-09-25T00:06:18.515Z,101143.03
2022-09-25T00:08:46.191Z,101141.25
2022-09-25T00:11:16.433Z,101150.00
2022-09-25T00:13:44.515Z,101140.38
2022-09-25T00:16:16.532Z,101136.88
2022-09-25T00:19:02.288Z,101141.22
2022-09-25T00:21:31.679Z,101138.63
2022-09-25T00:24:00.950Z,101134.25
2022-09-25T00:26:30.316Z,101131.66
2022-09-25T00:29:00.488Z,101126.41
2022-09-25T00:31:28.851Z,101128.19
2022-09-25T00:33:59.667Z,101130.81
2022-09-25T00:36:26.815Z,101132.53
2022-09-25T00:38:54.563Z,101125.56
2022-09-25T00:41:25.900Z,101127.31
2022-09-25T00:43:56.347Z,101125.56
2022-09-25T00:46:40.766Z,101132.56
2022-09-25T00:49:16.383Z,101117.72
2022-09-25T00:51:56.891Z,101121.22
2022-09-25T00:54:33.776Z,101114.25
2022-09-25T00:57:07.497Z,101120.34
2022-09-25T00:59:40.327Z,101109.03
2022-09-25T01:02:14.283Z,101114.25
2022-09-25T01:04:46.209Z,101112.50
2022-09-25T01:07:14.850Z,101108.16
2022-09-25T01:09:41.860Z,101113.38
2022-09-25T01:12:09.475Z,101109.91
2022-09-25T01:14:37.445Z,101116.03
2022-09-25T01:17:14.698Z,101118.63
2022-09-25T01:20:11.259Z,101105.53
2022-09-25T01:23:27.153Z,101113.38
2022-09-25T01:26:25.975Z,101115.13
2022-09-25T01:29:20.463Z,101113.34
2022-09-25T01:32:05.089Z,101117.72
2022-09-25T01:34:54.343Z,101114.22
2022-09-25T01:37:26.291Z,101128.16
2022-09-25T01:40:05.852Z,101115.06
2022-09-25T01:42:43.884Z,101108.97
2022-09-25T01:45:20.589Z,101120.31
2022-09-25T01:47:51.640Z,101118.56
2022-09-25T01:50:31.421Z,101113.31
2022-09-25T01:53:04.465Z,101108.97
2022-09-25T01:55:38.514Z,101105.44
2022-09-25T01:58:22.904Z,101096.72
2022-09-25T02:00:59.343Z,101096.75
2022-09-25T02:03:40.007Z,101106.34
2022-09-25T02:06:10.300Z,101103.69
2022-09-25T02:08:44.221Z,101102.81
2022-09-25T02:11:12.170Z,101102.78
2022-09-25T02:13:58.817Z,101106.28
2022-09-25T02:16:38.232Z,101104.53
2022-09-25T02:19:24.561Z,101102.78
2022-09-25T02:22:05.374Z,101091.44
2022-09-25T02:24:58.705Z,101097.53
2022-09-25T02:27:27.834Z,101101.00
2022-09-25T02:29:56.458Z,101091.38
2022-09-25T02:32:29.416Z,101098.34
2022-09-25T02:34:57.868Z,101091.34
2022-09-25T02:37:24.828Z,101091.34
2022-09-25T02:39:57.948Z,101097.50
2022-09-25T02:42:58.195Z,101083.53
2022-09-25T02:46:04.667Z,101099.25
2022-09-25T02:48:59.809Z,101092.28
2022-09-25T02:51:51.303Z,101093.16
2022-09-25T02:54:31.376Z,101094.00
2022-09-25T02:57:22.253Z,101101.00
2022-09-25T02:59:56.691Z,101100.13
2022-09-25T03:02:24.316Z,101098.34
2022-09-25T03:04:52.480Z,101096.63
2022-09-25T03:07:20.067Z,101089.63
2022-09-25T03:09:49.020Z,101092.25
2022-09-25T03:12:15.987Z,101092.25
2022-09-25T03:14:43.364Z,101092.22
2022-09-25T03:17:11.743Z,101092.22
2022-09-25T03:19:38.939Z,101085.22
2022-09-25T03:22:05.979Z,101090.44
2022-09-25T03:24:33.037Z,101079.09
2022-09-25T03:26:59.924Z,101083.44
2022-09-25T03:29:26.874Z,101078.19
2022-09-25T03:31:53.763Z,101077.28
2022-09-25T03:34:21.189Z,101079.03
2022-09-25T03:36:48.069Z,101079.03
2022-09-25T03:39:17.865Z,101074.69
2022-09-25T03:41:45.729Z,101079.91
2022-09-25T03:44:12.800Z,101072.97
2022-09-25T03:46:39.898Z,101085.22
2022-09-25T03:49:07.700Z,101079.97
2022-09-25T03:51:35.191Z,101085.22
2022-09-25T03:54:03.990Z,101083.50
2022-09-25T03:56:31.094Z,101080.00
2022-09-25T03:58:58.441Z,101076.53
2022-09-25T04:01:27.144Z,101073.91
2022-09-25T04:03:54.521Z,101063.41
2022-09-25T04:06:25.881Z,101078.25
2022-09-25T04:08:53.688Z,101071.28
2022-09-25T04:11:24.185Z,101068.66
2022-09-25T04:13:52.566Z,101066.94
2022-09-25T04:16:21.094Z,101073.06
2022-09-25T04:18:48.460Z,101073.94
2022-09-25T04:21:16.905Z,101068.69
2022-09-25T04:24:03.947Z,101056.47
2022-09-25T04:26:31.683Z,101067.81
2022-09-25T04:29:01.306Z,101067.78
2022-09-25T04:31:29.299Z,101073.03
2022-09-25T04:33:56.221Z,101086.19
2022-09-25T04:36:23.098Z,101076.53
2022-09-25T04:38:50.026Z,101073.94
2022-09-25T04:41:19.691Z,101065.19
2022-09-25T04:43:46.588Z,101076.53
2022-09-25T04:46:20.909Z,101072.16
2022-09-25T04:48:48.644Z,101065.19
2022-09-25T04:51:15.534Z,101061.69
2022-09-25T04:53:42.807Z,101053.81
2022-09-25T04:56:15.392Z,101066.03
2022-09-25T04:58:49.333Z,101066.91
2022-09-25T05:01:18.169Z,101067.75
2022-09-25T05:03:50.255Z,101064.28
2022-09-25T05:06:17.380Z,101058.16
2022-09-25T05:08:44.262Z,101062.50
2022-09-25T05:11:11.441Z,101064.25
2022-09-25T05:13:38.418Z,101063.38
2022-09-25T05:16:05.466Z,101059.84
2022-09-25T05:18:32.548Z,101058.09
2022-09-25T05:21:04.945Z,101058.16
2022-09-25T05:23:31.837Z,101036.34
2022-09-25T05:26:02.050Z,101060.72
2022-09-25T05:28:33.337Z,101064.25
2022-09-25T05:31:03.606Z,101057.25
2022-09-25T05:33:35.235Z,101060.72
2022-09-25T05:36:03.732Z,101068.59
2022-09-25T05:38:33.324Z,101064.25
2022-09-25T05:41:05.214Z,101055.50
2022-09-25T05:43:33.280Z,101059.00
2022-09-25T05:46:01.097Z,101059.88
2022-09-25T05:48:28.066Z,101059.88
2022-09-25T05:50:56.603Z,101048.53
2022-09-25T05:53:24.565Z,101052.91
2022-09-25T05:55:51.798Z,101061.63
2022-09-25T05:58:18.960Z,101052.91
2022-09-25T06:00:45.901Z,101054.66
2022-09-25T06:03:12.822Z,101052.03
2022-09-25T06:05:40.721Z,101044.22
2022-09-25T06:08:08.383Z,101054.69
2022-09-25T06:10:35.632Z,101045.06
2022-09-25T06:13:04.947Z,101044.19
2022-09-25T06:15:38.262Z,101038.97
2022-09-25T06:18:06.650Z,101047.72
2022-09-25T06:20:33.983Z,101045.91
2022-09-25T06:23:01.140Z,101032.84
2022-09-25T06:25:36.488Z,101037.16
2022-09-25T06:28:04.712Z,101038.88
2022-09-25T06:30:35.226Z,101045.84
2022-09-25T06:33:09.574Z,101041.47
2022-09-25T06:35:41.568Z,101033.59
2022-09-25T06:38:08.469Z,101044.06
2022-09-25T06:40:37.981Z,101044.09
2022-09-25T06:43:05.685Z,101049.31
2022-09-25T06:45:34.279Z,101053.66
2022-09-25T06:48:03.587Z,101060.63
2022-09-25T06:50:38.165Z,101058.81
2022-09-25T06:53:05.077Z,101058.75
2022-09-25T06:55:35.127Z,101053.50
2022-09-25T06:58:02.558Z,101063.94
2022-09-25T07:00:29.434Z,101064.84
2022-09-25T07:03:16.785Z,101074.53
2022-09-25T07:05:44.757Z,101061.50
2022-09-25T07:08:13.957Z,101060.63
2022-09-25T07:10:47.244Z,101072.78
2022-09-25T07:13:14.154Z,101067.44
2022-09-25T07:15:41.077Z,101067.41
2022-09-25T07:18:07.977Z,101063.94
2022-09-25T07:20:34.870Z,101061.31
2022-09-25T07:23:04.034Z,101070.88
2022-09-25T07:25:34.211Z,101061.19
2022-09-25T07:28:01.123Z,101064.53
2022-09-25T07:30:29.546Z,101056.59
2022-09-25T07:33:00.105Z,101052.97
2022-09-25T07:35:27.313Z,101047.66
2022-09-25T07:37:57.855Z,101061.41
2022-09-25T07:40:27.382Z,101063.94
2022-09-25T07:43:03.516Z,101061.16
2022-09-25T07:45:31.041Z,101059.31
2022-09-25T07:48:02.934Z,101063.59
2022-09-25T07:50:33.537Z,101060.88
2022-09-25T07:53:00.610Z,101063.38
2022-09-25T07:55:28.627Z,101051.94
2022-09-25T07:57:58.795Z,101052.69
2022-09-25T08:00:25.758Z,101056.09
2022-09-25T08:02:59.577Z,101055.19
2022-09-25T08:05:27.665Z,101061.19
2022-09-25T08:07:54.960Z,101043.69
2022-09-25T08:10:22.706Z,101091.75
2022-09-25T08:12:49.764Z,101046.06
2022-09-25T08:15:16.745Z,101050.28
2022-09-25T08:17:43.814Z,101054.53
2022-09-25T08:20:11.142Z,101048.22
2022-09-25T08:22:38.133Z,101053.38
2022-09-25T08:25:05.443Z,101045.34
2022-09-25T08:27:32.542Z,101041.75
2022-09-25T08:29:59.416Z,101047.69
2022-09-25T08:32:26.318Z,101049.34
2022-09-25T08:34:54.221Z,101046.63
2022-09-25T08:37:21.099Z,101048.28
2022-09-25T08:39:47.998Z,101051.69
2022-09-25T08:42:30.112Z,101049.81
2022-09-25T08:45:21.567Z,101048.81
2022-09-25T08:48:11.005Z,101052.22
2022-09-25T08:50:38.188Z,101056.56
2022-09-25T08:53:20.441Z,101031.16
2022-09-25T08:56:07.307Z,101044.94
2022-09-25T08:58:42.604Z,101034.38
2022-09-25T09:01:47.149Z,101032.44
2022-09-25T09:04:31.986Z,101036.72
2022-09-25T09:07:28.408Z,101031.34
2022-09-25T09:10:00.764Z,101030.41
2022-09-25T09:12:49.772Z,101029.41
2022-09-25T09:15:40.308Z,101016.22
2022-09-25T09:18:30.416Z,101033.53
2022-09-25T09:21:03.658Z,101027.22
2022-09-25T09:23:43.175Z,101022.69
2022-09-25T09:26:43.473Z,101026.00
2022-09-25T09:29:52.857Z,101018.75
2022-09-25T09:32:47.485Z,101023.06
2022-09-25T09:35:38.620Z,101020.22
2022-09-25T09:38:23.877Z,101017.41
2022-09-25T09:41:34.616Z,101014.63
2022-09-25T09:44:39.949Z,101010.06
2022-09-25T09:47:26.950Z,101003.72
2022-09-25T09:50:06.291Z,100997.41
2022-09-25T09:52:40.307Z,100990.28
2022-09-25T09:55:37.639Z,101003.28
2022-09-25T09:58:13.412Z,101001.38
2022-09-25T10:00:40.898Z,100992.41
2022-09-25T10:03:21.050Z,100995.75
2022-09-25T10:06:11.799Z,100988.50
2022-09-25T10:08:38.803Z,100986.53
2022-09-25T10:11:18.075Z,100984.63
2022-09-25T10:13:46.161Z,100985.28
2022-09-25T10:16:20.308Z,100985.16
2022-09-25T10:19:02.470Z,100978.81
2022-09-25T10:21:41.205Z,100976.84
2022-09-25T10:24:08.238Z,100987.13
2022-09-25T10:26:41.147Z,100984.34
2022-09-25T10:29:20.146Z,100981.56
2022-09-25T10:31:47.416Z,100977.03
2022-09-25T10:34:16.328Z,100977.69
2022-09-25T10:36:49.001Z,100975.81
2022-09-25T10:39:44.077Z,100968.69
2022-09-25T10:42:39.626Z,100970.25
2022-09-25T10:45:32.403Z,100963.00
2022-09-25T10:48:18.321Z,100963.66
2022-09-25T10:50:45.843Z,100953.00
2022-09-25T10:53:30.446Z,100958.19
2022-09-25T10:56:09.327Z,100949.19
2022-09-25T10:58:55.107Z,100944.69
2022-09-25T11:01:42.904Z,100944.56
2022-09-25T11:04:30.030Z,100948.03
2022-09-25T11:07:07.597Z,100954.91
2022-09-25T11:09:36.676Z,100953.78
2022-09-25T11:12:23.583Z,100951.00
2022-09-25T11:15:07.151Z,100947.41
2022-09-25T11:17:43.243Z,100948.13
2022-09-25T11:20:18.753Z,100943.53
2022-09-25T11:23:11.175Z,100947.94
2022-09-25T11:25:49.205Z,100936.38
2022-09-25T11:28:54.438Z,100939.72
2022-09-25T11:31:40.783Z,100937.00
2022-09-25T11:34:27.793Z,100929.94
2022-09-25T11:37:17.163Z,100934.34
2022-09-25T11:40:12.593Z,100929.94
2022-09-25T11:42:51.403Z,100930.75
2022-09-25T11:45:36.440Z,100927.13
2022-09-25T11:48:19.710Z,100920.88
2022-09-25T11:51:04.804Z,100923.25
2022-09-25T11:54:32.630Z,100915.91
2022-09-25T11:57:20.187Z,100909.59
2022-09-25T12:00:18.117Z,100909.50
2022-09-25T12:03:28.390Z,100909.38
2022-09-25T12:06:32.435Z,100903.44
2022-09-25T12:09:31.188Z,100902.78
2022-09-25T12:12:47.604Z,100900.09
2022-09-25T12:16:02.732Z,100891.16
2022-09-25T12:18:45.201Z,100885.72
2022-09-25T12:21:47.897Z,100890.09
2022-09-25T12:24:40.147Z,100885.72
2022-09-25T12:27:40.701Z,100892.75
2022-09-25T12:30:18.916Z,100887.44
2022-09-25T12:33:15.731Z,100890.06
2022-09-25T12:36:24.745Z,100882.84
2022-09-25T12:39:16.257Z,100882.72
2022-09-25T12:41:54.253Z,100871.81
2022-09-25T12:44:47.430Z,100875.22
2022-09-25T12:47:34.159Z,100876.94
2022-09-25T12:50:09.690Z,100865.38
2022-09-25T12:52:48.201Z,100867.09
2022-09-25T12:55:37.433Z,100859.09
2022-09-25T12:58:37.114Z,100850.50
2022-09-25T13:01:27.415Z,100852.16
2022-09-25T13:04:15.561Z,100849.47
2022-09-25T13:07:10.129Z,100855.56
2022-09-25T13:09:45.083Z,100846.69
2022-09-25T13:12:33.169Z,100843.94
2022-09-25T13:15:16.523Z,100830.69
2022-09-25T13:17:43.675Z,100827.81
2022-09-25T13:20:28.734Z,100819.97
2022-09-25T13:23:05.258Z,100826.47
2022-09-25T13:26:02.077Z,100827.34
2022-09-25T13:28:33.755Z,100827.19
2022-09-25T13:31:13.457Z,100831.34
2022-09-25T13:33:52.230Z,100828.28
2022-09-25T13:36:23.243Z,100822.25
2022-09-25T13:39:20.037Z,100827.75
2022-09-25T13:41:55.387Z,100815.09
2022-09-25T13:44:40.323Z,100811.28
2022-09-25T13:47:25.126Z,100809.13
2022-09-25T13:50:11.131Z,100801.56
2022-09-25T13:52:43.732Z,100803.75
2022-09-25T13:55:13.562Z,100803.41
2022-09-25T13:57:58.451Z,100796.13
2022-09-25T14:00:50.561Z,100804.78
2022-09-25T14:03:50.001Z,100789.69
2022-09-25T14:06:24.903Z,100786.13
2022-09-25T14:08:57.276Z,100792.19
2022-09-25T14:11:32.744Z,100791.28
2022-09-25T14:14:01.848Z,100784.19
2022-09-25T14:16:37.156Z,100782.53
2022-09-25T14:19:05.795Z,100786.97
2022-09-25T14:21:35.945Z,100786.19
2022-09-25T14:24:23.378Z,100773.97
2022-09-25T14:26:53.423Z,100774.03
2022-09-25T14:29:39.162Z,100771.44
2022-09-25T14:32:55.116Z,100768.06
2022-09-25T14:35:46.740Z,100770.84
2022-09-25T14:38:51.240Z,100762.97
2022-09-25T14:41:54.420Z,100761.38
2022-09-25T14:45:03.858Z,100767.75
2022-09-25T14:47:36.562Z,100765.31
2022-09-25T14:50:05.858Z,100760.22
2022-09-25T14:52:36.334Z,100756.84
2022-09-25T14:55:05.301Z,100764.72
2022-09-25T14:57:36.275Z,100759.56
2022-09-25T15:00:08.048Z,100756.09
2022-09-25T15:02:41.916Z,100758.00
2022-09-25T15:05:27.077Z,100746.59
2022-09-25T15:07:59.879Z,100744.09
2022-09-25T15:10:38.899Z,100750.06
2022-09-25T15:13:18.645Z,100750.19
2022-09-25T15:16:12.645Z,100746.78
2022-09-25T15:18:42.959Z,100745.19
2022-09-25T15:21:21.945Z,100737.41
2022-09-25T15:23:48.856Z,100741.66
2022-09-25T15:26:18.539Z,100742.59
2022-09-25T15:28:46.302Z,100737.41
2022-09-25T15:31:13.752Z,100738.41
2022-09-25T15:33:41.723Z,100741.84
2022-09-25T15:36:23.687Z,100739.38
2022-09-25T15:39:00.853Z,100737.72
2022-09-25T15:41:29.298Z,100744.03
2022-09-25T15:44:24.205Z,100735.53
2022-09-25T15:46:53.894Z,100734.75
2022-09-25T15:49:35.245Z,100735.00
2022-09-25T15:52:19.469Z,100731.53
2022-09-25T15:54:46.724Z,100739.69
2022-09-25T15:57:17.325Z,100737.22
2022-09-25T16:00:06.627Z,100733.91
2022-09-25T16:03:07.901Z,100735.16
2022-09-25T16:05:36.570Z,100731.00
2022-09-25T16:08:32.341Z,100723.28
2022-09-25T16:11:22.594Z,100717.38
2022-09-25T16:13:52.507Z,100716.47
2022-09-25T16:16:29.913Z,100714.81
2022-09-25T16:19:25.900Z,100715.00
2022-09-25T16:21:53.785Z,100709.78
2022-09-25T16:24:27.876Z,100706.44
2022-09-25T16:26:59.012Z,100709.19
2022-09-25T16:29:32.648Z,100706.63
2022-09-25T16:32:16.118Z,100699.78
2022-09-25T16:34:57.441Z,100704.34
2022-09-25T16:37:28.924Z,100695.75
2022-09-25T16:40:24.792Z,100699.56
2022-09-25T16:42:55.797Z,100704.03
2022-09-25T16:45:34.200Z,100703.31
2022-09-25T16:48:37.896Z,100709.59
2022-09-25T16:51:11.168Z,100702.72
2022-09-25T16:53:40.058Z,100699.28
2022-09-25T16:56:06.929Z,100689.81
2022-09-25T16:58:36.086Z,100702.19
2022-09-25T17:01:04.760Z,100694.34
2022-09-25T17:03:49.656Z,100696.41
2022-09-25T17:06:26.357Z,100703.41
2022-09-25T17:08:53.657Z,100705.28
2022-09-25T17:11:22.285Z,100706.25
2022-09-25T17:13:50.073Z,100694.09
2022-09-25T17:16:17.243Z,100696.78
2022-09-25T17:18:44.168Z,100698.59
2022-09-25T17:21:14.523Z,100696.91
2022-09-25T17:23:42.547Z,100687.31
2022-09-25T17:26:27.712Z,100685.72
2022-09-25T17:28:54.592Z,100684.88
2022-09-25T17:31:22.189Z,100686.78
2022-09-25T17:33:52.393Z,100694.81
2022-09-25T17:36:19.555Z,100687.06
2022-09-25T17:38:46.462Z,100682.81
2022-09-25T17:41:32.588Z,100690.97
2022-09-25T17:43:59.856Z,100693.75
2022-09-25T17:46:27.726Z,100691.34
2022-09-25T17:48:55.119Z,100702.09
2022-09-25T17:51:27.648Z,100708.44
2022-09-25T17:53:56.048Z,100702.38
2022-09-25T17:56:24.706Z,100696.34
2022-09-25T17:58:57.228Z,100693.72
2022-09-25T18:01:27.196Z,100692.97
2022-09-25T18:04:00.169Z,100692.13
2022-09-25T18:06:29.181Z,100693.06
2022-09-25T18:08:56.509Z,100690.44
2022-09-25T18:11:25.423Z,100685.19
2022-09-25T18:13:56.808Z,100686.97
2022-09-25T18:16:30.540Z,100684.41
2022-09-25T18:19:16.421Z,100680.88
2022-09-25T18:22:01.930Z,100684.44
2022-09-25T18:24:29.018Z,100676.63
2022-09-25T18:26:57.938Z,100675.72
2022-09-25T18:29:25.203Z,100674.06
2022-09-25T18:31:52.308Z,100677.53
2022-09-25T18:34:21.598Z,100676.69
2022-09-25T18:36:49.907Z,100680.25
2022-09-25T18:39:20.151Z,100674.09
2022-09-25T18:41:48.209Z,100664.63
2022-09-25T18:44:17.634Z,100673.34
2022-09-25T18:46:44.722Z,100679.50
2022-09-25T18:49:11.828Z,100666.31
2022-09-25T18:51:38.739Z,100661.06
2022-09-25T18:54:05.842Z,100661.97
2022-09-25T18:56:34.608Z,100660.25
2022-09-25T18:59:05.534Z,100655.13
2022-09-25T19:01:34.569Z,100657.78
2022-09-25T19:04:01.709Z,100650.03
2022-09-25T19:06:28.582Z,100650.03
2022-09-25T19:08:57.269Z,100659.75
2022-09-25T19:11:26.340Z,100656.38
2022-09-25T19:13:53.618Z,100645.00
2022-09-25T19:16:21.493Z,100653.75
2022-09-25T19:18:50.138Z,100651.19
2022-09-25T19:21:22.280Z,100648.69
2022-09-25T19:23:50.273Z,100646.13
2022-09-25T19:26:22.139Z,100646.19
2022-09-25T19:28:49.284Z,100648.91
2022-09-25T19:31:20.552Z,100647.19
2022-09-25T19:33:47.882Z,100640.25
2022-09-25T19:36:24.498Z,100635.00
2022-09-25T19:38:52.205Z,100631.53
2022-09-25T19:41:26.323Z,100637.72
2022-09-25T19:43:57.328Z,100638.66
2022-09-25T19:46:25.175Z,100637.84
2022-09-25T19:48:52.377Z,100636.16
2022-09-25T19:51:22.127Z,100632.75
2022-09-25T19:53:50.009Z,100638.88
2022-09-25T19:56:19.094Z,100631.94
2022-09-25T19:58:50.837Z,100642.56
2022-09-25T20:01:26.128Z,100648.78
2022-09-25T20:03:55.629Z,100646.19
2022-09-25T20:06:24.001Z,100640.13
2022-09-25T20:08:57.885Z,100629.72
2022-09-25T20:11:25.599Z,100628.81
2022-09-25T20:13:53.738Z,100631.53
2022-09-25T20:16:25.407Z,100623.66
2022-09-25T20:19:04.501Z,100615.06
2022-09-25T20:21:34.915Z,100622.91
2022-09-25T20:24:04.580Z,100615.09
2022-09-25T20:26:31.794Z,100613.38
2022-09-25T20:29:08.653Z,100613.41
2022-09-25T20:31:38.132Z,100616.09
2022-09-25T20:34:05.270Z,100615.22
2022-09-25T20:36:32.382Z,100611.75
2022-09-25T20:39:00.838Z,100607.41
2022-09-25T20:41:27.711Z,100602.25
2022-09-25T20:43:57.037Z,100604.09
2022-09-25T20:46:25.301Z,100601.53
2022-09-25T20:48:57.039Z,100598.09
2022-09-25T20:51:27.407Z,100593.78
2022-09-25T20:54:00.609Z,100596.50
2022-09-25T20:56:30.967Z,100597.41
2022-09-25T20:58:59.927Z,100592.19
2022-09-25T21:01:31.467Z,100593.09
2022-09-25T21:04:01.389Z,100585.22
2022-09-25T21:06:32.143Z,100584.41
2022-09-25T21:09:02.518Z,100587.88
2022-09-25T21:11:31.703Z,100587.88
2022-09-25T21:14:02.464Z,100582.59
2022-09-25T21:16:31.750Z,100586.16
2022-09-25T21:19:02.102Z,100587.91
2022-09-25T21:21:29.399Z,100590.50
2022-09-25T21:23:58.118Z,100589.63
2022-09-25T21:26:28.439Z,100591.41
2022-09-25T21:28:58.727Z,100593.19
2022-09-25T21:31:32.845Z,100588.88
2022-09-25T21:34:00.384Z,100588.91
2022-09-25T21:36:28.732Z,100588.09
2022-09-25T21:38:56.459Z,100588.91
2022-09-25T21:41:25.800Z,100581.94
2022-09-25T21:43:54.942Z,100587.25
2022-09-25T21:46:22.862Z,100596.09
2022-09-25T21:48:54.044Z,100587.38
2022-09-25T21:51:23.820Z,100582.22
2022-09-25T21:53:52.538Z,100583.13
2022-09-25T21:56:22.680Z,100582.34
2022-09-25T21:58:51.860Z,100583.28
2022-09-25T22:01:22.130Z,100576.34
2022-09-25T22:03:51.447Z,100579.91
2022-09-25T22:06:26.429Z,100579.94
2022-09-25T22:08:57.501Z,100586.13
2022-09-25T22:11:24.675Z,100581.81
2022-09-25T22:13:52.544Z,100572.16
2022-09-25T22:16:23.613Z,100581.81
2022-09-25T22:18:58.685Z,100570.47
2022-09-25T22:21:30.235Z,100574.91
2022-09-25T22:23:57.957Z,100574.97
2022-09-25T22:26:26.356Z,100571.53
2022-09-25T22:28:53.792Z,100571.56
2022-09-25T22:31:24.739Z,100570.72
2022-09-25T22:34:12.467Z,100569.03
2022-09-25T22:36:39.391Z,100561.16
2022-09-25T22:39:06.541Z,100563.00
2022-09-25T22:41:33.734Z,100563.88
2022-09-25T22:44:01.516Z,100566.56
2022-09-25T22:46:28.940Z,100563.91
2022-09-25T22:48:56.296Z,100565.72
2022-09-25T22:51:25.468Z,100556.09
2022-09-25T22:53:54.128Z,100544.72
2022-09-25T22:56:26.262Z,100557.00
2022-09-25T22:58:57.350Z,100550.91
2022-09-25T23:01:42.188Z,100553.53
2022-09-25T23:04:15.313Z,100546.56
2022-09-25T23:06:42.935Z,100537.13
2022-09-25T23:09:17.190Z,100554.53
2022-09-25T23:11:45.104Z,100548.50
2022-09-25T23:14:17.007Z,100554.69
2022-09-25T23:16:45.920Z,100548.69
2022-09-25T23:19:13.869Z,100541.75
2022-09-25T23:21:41.267Z,100534.91
2022-09-25T23:24:15.720Z,100546.34
2022-09-25T23:26:43.771Z,100539.44
2022-09-25T23:29:14.545Z,100536.03
2022-09-25T23:31:42.335Z,100540.47
2022-09-25T23:34:10.111Z,100544.91
2022-09-25T23:36:37.322Z,100541.47
2022-09-25T23:39:05.611Z,100532.81
2022-09-25T23:41:38.249Z,100539.88
2022-09-25T23:44:08.610Z,100540.81
2022-09-25T23:46:39.729Z,100537.41
2022-09-25T23:49:07.561Z,100537.44
2022-09-25T23:51:34.684Z,100536.59
2022-09-25T23:54:02.291Z,100537.50
2022-09-25T23:56:32.579Z,100534.09
2022-09-25T23:59:03.641Z,100531.53
